createdAt,value
2022-10-24T00:00:49.563Z,100251.16
2022-10-24T00:03:16.319Z,100258.19
2022-10-24T00:05:45.060Z,100260.88
2022-10-24T00:08:12.070Z,100262.63
2022-10-24T00:10:42.345Z,100272.44
2022-10-24T00:13:09.606Z,100268.03
2022-10-24T00:15:36.334Z,100283.25
2022-10-24T00:18:03.403Z,100277.97
2022-10-24T00:20:30.101Z,100272.72
2022-10-24T00:22:56.822Z,100274.56
2022-10-24T00:25:23.512Z,100276.44
2022-10-24T00:27:50.209Z,100270.22
2022-10-24T00:30:16.941Z,100267.63
2022-10-24T00:32:43.767Z,100277.44
2022-10-24T00:35:11.104Z,100278.41
2022-10-24T00:37:37.828Z,100275.72
2022-10-24T00:40:06.124Z,100274.91
2022-10-24T00:42:32.834Z,100276.75
2022-10-24T00:44:59.581Z,100274.06
2022-10-24T00:47:27.022Z,100280.31
2022-10-24T00:50:14.038Z,100274.19
2022-10-24T00:52:43.516Z,100276.88
2022-10-24T00:55:10.763Z,100270.66
2022-10-24T00:57:46.205Z,100269.84
2022-10-24T01:00:17.638Z,100270.75
2022-10-24T01:02:45.246Z,100269.91
2022-10-24T01:05:12.701Z,100265.53
2022-10-24T01:07:39.358Z,100262.00
2022-10-24T01:10:26.832Z,100256.72
2022-10-24T01:13:08.989Z,100248.72
2022-10-24T01:15:56.233Z,100235.47
2022-10-24T01:18:41.582Z,100242.63
2022-10-24T01:21:24.695Z,100257.81
2022-10-24T01:24:29.167Z,100262.34
2022-10-24T01:27:04.405Z,100270.41
2022-10-24T01:29:48.735Z,100267.78
2022-10-24T01:32:26.578Z,100266.03
2022-10-24T01:35:01.036Z,100266.94
2022-10-24T01:37:39.682Z,100257.19
2022-10-24T01:40:14.081Z,100256.31
2022-10-24T01:42:41.930Z,100247.41
2022-10-24T01:45:10.180Z,100244.84
2022-10-24T01:47:45.144Z,100229.72
2022-10-24T01:50:14.163Z,100238.69
2022-10-24T01:52:43.308Z,100237.81
2022-10-24T01:55:10.719Z,100235.13
2022-10-24T01:57:38.882Z,100226.28
2022-10-24T02:00:08.023Z,100225.41
2022-10-24T02:02:38.889Z,100222.78
2022-10-24T02:05:11.571Z,100212.16
2022-10-24T02:07:39.793Z,100210.47
2022-10-24T02:10:11.045Z,100217.59
2022-10-24T02:12:41.499Z,100217.59
2022-10-24T02:15:14.835Z,100221.13
2022-10-24T02:17:41.867Z,100219.38
2022-10-24T02:20:09.373Z,100222.06
2022-10-24T02:22:47.956Z,100210.50
2022-10-24T02:25:24.181Z,100210.50
2022-10-24T02:27:55.192Z,100212.25
2022-10-24T02:30:24.829Z,100206.91
2022-10-24T02:32:55.086Z,100196.22
2022-10-24T02:35:26.622Z,100201.50
2022-10-24T02:37:57.795Z,100197.03
2022-10-24T02:40:24.602Z,100188.13
2022-10-24T02:42:53.943Z,100185.41
2022-10-24T02:45:21.494Z,100178.28
2022-10-24T02:47:48.731Z,100171.97
2022-10-24T02:50:15.450Z,100196.03
2022-10-24T02:52:43.324Z,100204.03
2022-10-24T02:55:11.712Z,100211.13
2022-10-24T02:57:39.077Z,100200.44
2022-10-24T03:00:06.970Z,100198.66
2022-10-24T03:02:33.679Z,100198.69
2022-10-24T03:05:00.466Z,100196.03
2022-10-24T03:07:27.215Z,100196.09
2022-10-24T03:09:53.938Z,100199.66
2022-10-24T03:12:20.787Z,100187.22
2022-10-24T03:14:47.501Z,100180.09
2022-10-24T03:17:14.263Z,100179.22
2022-10-24T03:19:40.947Z,100160.56
2022-10-24T03:22:07.633Z,100174.78
2022-10-24T03:24:44.068Z,100174.88
2022-10-24T03:27:11.509Z,100179.25
2022-10-24T03:29:38.228Z,100176.59
2022-10-24T03:32:05.562Z,100168.56
2022-10-24T03:34:32.373Z,100166.84
2022-10-24T03:36:59.159Z,100163.31
2022-10-24T03:39:25.962Z,100164.19
2022-10-24T03:41:52.646Z,100168.56
2022-10-24T03:44:19.336Z,100161.50
2022-10-24T03:46:46.055Z,100169.53
2022-10-24T03:49:12.743Z,100172.19
2022-10-24T03:51:39.441Z,100165.09
2022-10-24T03:54:06.159Z,100166.88
2022-10-24T03:56:32.846Z,100169.56
2022-10-24T03:58:59.520Z,100170.44
2022-10-24T04:01:26.341Z,100173.97
2022-10-24T04:03:53.065Z,100173.91
2022-10-24T04:06:19.767Z,100175.78
2022-10-24T04:08:46.444Z,100186.34
2022-10-24T04:11:13.173Z,100169.44
2022-10-24T04:13:40.743Z,100173.91
2022-10-24T04:16:08.309Z,100172.13
2022-10-24T04:18:35.046Z,100164.06
2022-10-24T04:21:01.855Z,100166.78
2022-10-24T04:23:30.754Z,100173.84
2022-10-24T04:25:57.488Z,100175.59
2022-10-24T04:28:24.177Z,100182.66
2022-10-24T04:30:55.587Z,100177.31
2022-10-24T04:33:22.626Z,100183.50
2022-10-24T04:35:49.979Z,100180.84
2022-10-24T04:38:16.765Z,100180.84
2022-10-24T04:40:48.888Z,100170.16
2022-10-24T04:43:15.635Z,100170.16
2022-10-24T04:45:42.363Z,100177.25
2022-10-24T04:48:09.063Z,100164.81
2022-10-24T04:50:36.206Z,100168.41
2022-10-24T04:53:02.994Z,100173.63
2022-10-24T04:55:29.706Z,100164.81
2022-10-24T04:57:56.414Z,100167.47
2022-10-24T05:00:23.116Z,100168.41
2022-10-24T05:02:50.696Z,100163.06
2022-10-24T05:05:20.782Z,100168.41
2022-10-24T05:07:47.656Z,100175.50
2022-10-24T05:10:15.553Z,100171.91
2022-10-24T05:12:44.270Z,100178.09
2022-10-24T05:15:11.822Z,100172.75
2022-10-24T05:17:38.487Z,100173.63
2022-10-24T05:20:05.734Z,100166.47
2022-10-24T05:22:32.452Z,100172.63
2022-10-24T05:24:59.157Z,100157.53
2022-10-24T05:27:25.887Z,100163.69
2022-10-24T05:29:55.444Z,100155.66
2022-10-24T05:32:23.764Z,100149.38
2022-10-24T05:34:50.499Z,100145.84
2022-10-24T05:37:17.355Z,100144.91
2022-10-24T05:39:44.068Z,100148.41
2022-10-24T05:42:11.154Z,100143.06
2022-10-24T05:44:38.117Z,100149.28
2022-10-24T05:47:05.061Z,100148.41
2022-10-24T05:49:32.008Z,100145.72
2022-10-24T05:51:58.808Z,100144.81
2022-10-24T05:54:30.235Z,100139.47
2022-10-24T05:57:04.508Z,100143.06
2022-10-24T05:59:31.258Z,100143.94
2022-10-24T06:01:58.243Z,100139.50
2022-10-24T06:04:25.062Z,100142.13
2022-10-24T06:06:51.740Z,100147.50
2022-10-24T06:09:18.449Z,100141.28
2022-10-24T06:11:45.173Z,100148.41
2022-10-24T06:14:11.847Z,100145.75
2022-10-24T06:16:38.570Z,100155.50
2022-10-24T06:19:05.266Z,100151.91
2022-10-24T06:21:31.968Z,100154.56
2022-10-24T06:23:58.752Z,100166.06
2022-10-24T06:26:25.513Z,100150.88
2022-10-24T06:28:52.352Z,100154.44
2022-10-24T06:31:20.584Z,100157.91
2022-10-24T06:33:47.376Z,100150.75
2022-10-24T06:36:14.417Z,100155.13
2022-10-24T06:38:41.334Z,100149.78
2022-10-24T06:41:09.511Z,100157.75
2022-10-24T06:43:36.885Z,100159.41
2022-10-24T06:46:08.357Z,100154.94
2022-10-24T06:48:35.985Z,100147.72
2022-10-24T06:51:03.368Z,100154.84
2022-10-24T06:53:30.276Z,100159.25
2022-10-24T06:56:03.109Z,100160.94
2022-10-24T06:58:33.984Z,100177.78
2022-10-24T07:01:00.833Z,100175.91
2022-10-24T07:03:27.632Z,100174.97
2022-10-24T07:05:54.350Z,100175.72
2022-10-24T07:08:21.105Z,100177.47
2022-10-24T07:10:47.803Z,100175.63
2022-10-24T07:13:14.497Z,100182.59
2022-10-24T07:15:41.236Z,100189.59
2022-10-24T07:18:14.098Z,100187.75
2022-10-24T07:20:40.843Z,100198.31
2022-10-24T07:23:07.530Z,100200.75
2022-10-24T07:25:34.220Z,100187.22
2022-10-24T07:28:00.929Z,100185.19
2022-10-24T07:30:27.605Z,100177.81
2022-10-24T07:32:55.764Z,100181.94
2022-10-24T07:35:23.612Z,100186.09
2022-10-24T07:37:50.776Z,100199.25
2022-10-24T07:40:17.796Z,100194.53
2022-10-24T07:42:44.559Z,100197.81
2022-10-24T07:45:11.417Z,100193.97
2022-10-24T07:47:38.161Z,100186.59
2022-10-24T07:50:05.945Z,100188.13
2022-10-24T07:52:32.634Z,100194.94
2022-10-24T07:54:59.342Z,100184.94
2022-10-24T07:57:26.051Z,100189.16
2022-10-24T07:59:52.824Z,100197.75
2022-10-24T08:02:19.612Z,100192.06
2022-10-24T08:04:46.405Z,100195.31
2022-10-24T08:07:13.623Z,100193.28
2022-10-24T08:09:42.460Z,100188.69
2022-10-24T08:12:09.444Z,100190.25
2022-10-24T08:14:40.310Z,100186.53
2022-10-24T08:17:07.073Z,100186.34
2022-10-24T08:19:34.419Z,100185.16
2022-10-24T08:22:01.565Z,100190.28
2022-10-24T08:24:28.637Z,100175.81
2022-10-24T08:26:56.615Z,100193.53
2022-10-24T08:29:23.632Z,100184.41
2022-10-24T08:31:53.941Z,100179.75
2022-10-24T08:34:21.651Z,100187.66
2022-10-24T08:36:49.572Z,100183.75
2022-10-24T08:39:17.381Z,100178.16
2022-10-24T08:41:57.975Z,100179.78
2022-10-24T08:44:29.609Z,100185.88
2022-10-24T08:47:05.347Z,100194.69
2022-10-24T08:50:24.006Z,100179.25
2022-10-24T08:52:57.009Z,100177.34
2022-10-24T08:55:51.070Z,100175.38
2022-10-24T08:58:31.061Z,100176.09
2022-10-24T09:01:00.604Z,100180.34
2022-10-24T09:03:56.905Z,100184.63
2022-10-24T09:06:29.566Z,100184.44
2022-10-24T09:09:02.088Z,100185.06
2022-10-24T09:11:40.919Z,100184.97
2022-10-24T09:14:13.407Z,100183.94
2022-10-24T09:16:42.854Z,100190.19
2022-10-24T09:19:14.864Z,100190.19
2022-10-24T09:21:42.557Z,100180.31
2022-10-24T09:24:21.498Z,100179.50
2022-10-24T09:26:48.679Z,100175.81
2022-10-24T09:29:15.365Z,100173.09
2022-10-24T09:31:42.110Z,100176.50
2022-10-24T09:34:09.399Z,100180.84
2022-10-24T09:36:36.105Z,100178.91
2022-10-24T09:39:23.025Z,100184.16
2022-10-24T09:41:50.070Z,100174.28
2022-10-24T09:44:31.057Z,100184.00
2022-10-24T09:46:58.085Z,100199.97
2022-10-24T09:49:31.682Z,100195.34
2022-10-24T09:52:18.884Z,100201.47
2022-10-24T09:54:47.163Z,100189.78
2022-10-24T10:00:00.182Z,100192.31
2022-10-24T10:02:37.595Z,100194.78
2022-10-24T10:05:04.240Z,100194.66
2022-10-24T10:07:34.830Z,100193.66
2022-10-24T10:10:26.338Z,100192.63
2022-10-24T10:13:00.557Z,100202.44
2022-10-24T10:15:35.686Z,100193.50
2022-10-24T10:18:20.945Z,100203.44
2022-10-24T10:21:09.902Z,100209.84
2022-10-24T10:23:42.421Z,100196.47
2022-10-24T10:26:12.398Z,100202.66
2022-10-24T10:28:45.423Z,100204.25
2022-10-24T10:31:20.353Z,100208.47
2022-10-24T10:34:20.312Z,100203.72
2022-10-24T10:37:10.171Z,100208.66
2022-10-24T10:40:01.067Z,100208.38
2022-10-24T10:42:36.465Z,100201.97
2022-10-24T10:45:38.967Z,100197.22
2022-10-24T10:48:45.167Z,100205.84
2022-10-24T10:51:20.878Z,100207.44
2022-10-24T10:53:50.884Z,100200.13
2022-10-24T10:56:52.388Z,100209.91
2022-10-24T10:59:28.554Z,100204.53
2022-10-24T11:02:20.512Z,100206.28
2022-10-24T11:04:57.288Z,100219.56
2022-10-24T11:07:45.367Z,100215.81
2022-10-24T11:10:16.744Z,100218.41
2022-10-24T11:12:45.384Z,100212.97
2022-10-24T11:15:30.041Z,100222.78
2022-10-24T11:18:13.107Z,100227.34
2022-10-24T11:20:51.167Z,100232.72
2022-10-24T11:26:36.041Z,100240.38
2022-10-24T11:29:11.243Z,100222.19
2022-10-24T11:31:40.689Z,100225.53
2022-10-24T11:34:10.266Z,100231.50
2022-10-24T11:36:43.427Z,100226.00
2022-10-24T11:39:47.788Z,100231.16
2022-10-24T11:42:51.757Z,100233.69
2022-10-24T11:45:20.777Z,100236.31
2022-10-24T11:47:55.832Z,100228.13
2022-10-24T11:50:28.742Z,100229.00
2022-10-24T11:53:15.109Z,100235.28
2022-10-24T11:55:47.048Z,100229.00
2022-10-24T11:58:20.447Z,100229.00
2022-10-24T12:01:13.352Z,100225.38
2022-10-24T12:04:02.681Z,100233.38
2022-10-24T12:06:57.281Z,100234.16
2022-10-24T12:09:45.062Z,100228.94
2022-10-24T12:12:40.075Z,100237.09
2022-10-24T12:15:35.492Z,100240.81
2022-10-24T12:18:06.186Z,100228.31
2022-10-24T12:20:33.316Z,100227.41
2022-10-24T12:23:01.049Z,100231.06
2022-10-24T12:25:36.473Z,100231.06
2022-10-24T12:28:04.416Z,100225.69
2022-10-24T12:30:33.929Z,100232.81
2022-10-24T12:33:26.727Z,100231.78
2022-10-24T12:35:57.174Z,100227.34
2022-10-24T12:38:26.777Z,100235.28
2022-10-24T12:41:05.818Z,100234.34
2022-10-24T12:43:43.353Z,100239.72
2022-10-24T12:46:21.781Z,100226.25
2022-10-24T12:48:58.792Z,100235.22
2022-10-24T12:51:40.027Z,100229.88
2022-10-24T12:54:15.968Z,100240.50
2022-10-24T12:56:52.137Z,100237.81
2022-10-24T12:59:24.578Z,100238.84
2022-10-24T13:02:19.963Z,100231.72
2022-10-24T13:05:22.238Z,100241.47
2022-10-24T13:07:58.594Z,100234.97
2022-10-24T13:10:46.912Z,100240.38
2022-10-24T13:13:44.013Z,100238.44
2022-10-24T13:16:37.049Z,100246.06
2022-10-24T13:19:06.661Z,100243.09
2022-10-24T13:24:16.714Z,100248.69
2022-10-24T13:26:45.580Z,100250.66
2022-10-24T13:29:21.349Z,100251.53
2022-10-24T13:31:50.377Z,100259.53
2022-10-24T13:34:29.155Z,100259.34
2022-10-24T13:37:10.975Z,100268.25
2022-10-24T13:39:53.091Z,100262.88
2022-10-24T13:42:26.812Z,100252.09
2022-10-24T13:44:59.092Z,100268.25
2022-10-24T13:47:32.346Z,100270.94
2022-10-24T13:50:22.582Z,100269.28
2022-10-24T13:52:57.720Z,100276.50
2022-10-24T13:55:36.270Z,100266.72
2022-10-24T13:58:05.852Z,100267.53
2022-10-24T14:00:35.639Z,100268.47
2022-10-24T14:03:05.008Z,100274.97
2022-10-24T14:05:35.413Z,100271.56
2022-10-24T14:08:02.586Z,100260.91
2022-10-24T14:10:30.153Z,100265.34
2022-10-24T14:12:57.226Z,100262.66
2022-10-24T14:15:30.770Z,100259.97
2022-10-24T14:18:00.649Z,100266.94
2022-10-24T14:20:28.895Z,100256.19
2022-10-24T14:22:56.186Z,100263.31
2022-10-24T14:25:36.013Z,100259.69
2022-10-24T14:28:10.298Z,100247.34
2022-10-24T14:30:37.020Z,100255.63
2022-10-24T14:33:12.760Z,100265.69
2022-10-24T14:35:39.959Z,100259.50
2022-10-24T14:38:09.722Z,100255.03
2022-10-24T14:40:36.610Z,100255.03
2022-10-24T14:43:03.413Z,100256.97
2022-10-24T14:45:30.837Z,100267.84
2022-10-24T14:47:59.250Z,100261.84
2022-10-24T14:50:43.266Z,100256.72
2022-10-24T14:53:27.629Z,100266.81
2022-10-24T14:55:57.623Z,100261.59
2022-10-24T14:58:30.061Z,100261.72
2022-10-24T15:00:58.552Z,100261.81
2022-10-24T15:03:26.240Z,100264.50
2022-10-24T15:06:10.728Z,100258.25
2022-10-24T15:11:24.496Z,100254.63
2022-10-24T15:14:06.226Z,100262.69
2022-10-24T15:16:40.666Z,100264.63
2022-10-24T15:19:13.270Z,100268.50
2022-10-24T15:21:45.096Z,100264.06
2022-10-24T15:24:23.937Z,100253.47
2022-10-24T15:26:50.969Z,100262.47
2022-10-24T15:29:22.464Z,100260.72
2022-10-24T15:31:51.048Z,100271.63
2022-10-24T15:34:22.715Z,100262.75
2022-10-24T15:36:51.456Z,100271.91
2022-10-24T15:39:20.663Z,100278.38
2022-10-24T15:41:47.409Z,100278.56
2022-10-24T15:44:26.595Z,100285.97
2022-10-24T15:46:53.484Z,100291.72
2022-10-24T15:49:20.216Z,100284.72
2022-10-24T15:51:50.209Z,100296.69
2022-10-24T15:54:19.770Z,100289.84
2022-10-24T15:56:46.974Z,100298.06
2022-10-24T15:59:13.925Z,100298.34
2022-10-24T16:01:48.393Z,100306.59
2022-10-24T16:04:15.312Z,100313.97
2022-10-24T16:06:42.005Z,100301.75
2022-10-24T16:09:27.659Z,100311.78
2022-10-24T16:11:55.048Z,100315.53
2022-10-24T16:14:22.870Z,100315.78
2022-10-24T16:16:49.592Z,100319.53
2022-10-24T16:19:16.282Z,100320.59
2022-10-24T16:21:43.103Z,100326.16
2022-10-24T16:24:10.538Z,100327.28
2022-10-24T16:26:37.505Z,100337.28
2022-10-24T16:29:04.729Z,100339.16
2022-10-24T16:31:31.861Z,100336.66
2022-10-24T16:33:58.871Z,100332.28
2022-10-24T16:36:25.864Z,100333.38
2022-10-24T16:38:53.681Z,100339.78
2022-10-24T16:41:25.309Z,100334.53
2022-10-24T16:43:56.464Z,100338.25
2022-10-24T16:46:24.252Z,100331.19
2022-10-24T16:48:51.150Z,100336.63
2022-10-24T16:51:20.841Z,100337.75
2022-10-24T16:53:47.546Z,100346.78
2022-10-24T16:56:15.908Z,100349.59
2022-10-24T16:58:43.364Z,100351.47
2022-10-24T17:01:12.221Z,100347.97
2022-10-24T17:03:39.680Z,100341.00
2022-10-24T17:06:07.128Z,100337.47
2022-10-24T17:08:34.317Z,100337.59
2022-10-24T17:11:01.024Z,100340.34
2022-10-24T17:13:28.289Z,100336.81
2022-10-24T17:15:55.231Z,100343.19
2022-10-24T17:18:23.514Z,100347.75
2022-10-24T17:20:50.411Z,100351.41
2022-10-24T17:23:19.383Z,100353.31
2022-10-24T17:25:46.257Z,100361.41
2022-10-24T17:28:13.965Z,100354.41
2022-10-24T17:30:40.783Z,100364.25
2022-10-24T17:33:07.622Z,100364.38
2022-10-24T17:35:36.444Z,100367.09
2022-10-24T17:38:29.040Z,100353.81
2022-10-24T17:40:58.014Z,100358.34
2022-10-24T17:43:26.662Z,100367.31
2022-10-24T17:45:55.011Z,100363.84
2022-10-24T17:48:22.717Z,100362.09
2022-10-24T17:50:49.633Z,100364.81
2022-10-24T17:53:18.220Z,100367.63
2022-10-24T17:55:47.200Z,100372.16
2022-10-24T17:58:15.573Z,100377.59
2022-10-24T18:00:42.848Z,100378.50
2022-10-24T18:03:09.825Z,100380.34
2022-10-24T18:05:38.221Z,100379.44
2022-10-24T18:08:10.121Z,100375.00
2022-10-24T18:10:39.270Z,100376.75
2022-10-24T18:13:06.757Z,100378.63
2022-10-24T18:15:33.623Z,100375.00
2022-10-24T18:18:00.314Z,100380.34
2022-10-24T18:20:27.108Z,100386.59
2022-10-24T18:22:53.815Z,100384.78
2022-10-24T18:25:22.988Z,100395.50
2022-10-24T18:27:50.376Z,100394.59
2022-10-24T18:30:17.658Z,100397.28
2022-10-24T18:32:44.835Z,100397.28
2022-10-24T18:35:12.073Z,100391.03
2022-10-24T18:37:38.852Z,100409.78
2022-10-24T18:40:07.486Z,100405.34
2022-10-24T18:42:54.021Z,100418.75
2022-10-24T18:45:23.630Z,100415.28
2022-10-24T18:47:51.540Z,100414.41
2022-10-24T18:50:23.335Z,100418.94
2022-10-24T18:53:15.974Z,100419.88
2022-10-24T18:55:45.929Z,100419.03
2022-10-24T18:58:13.623Z,100425.31
2022-10-24T19:00:42.213Z,100414.69
2022-10-24T19:03:25.091Z,100425.44
2022-10-24T19:05:55.601Z,100433.56
2022-10-24T19:08:24.216Z,100430.00
2022-10-24T19:10:52.766Z,100425.63
2022-10-24T19:13:19.495Z,100424.81
2022-10-24T19:15:53.748Z,100424.91
2022-10-24T19:18:20.678Z,100430.34
2022-10-24T19:20:47.425Z,100424.22
2022-10-24T19:23:17.642Z,100422.44
2022-10-24T19:25:45.121Z,100418.06
2022-10-24T19:28:16.489Z,100419.84
2022-10-24T19:30:44.680Z,100420.00
2022-10-24T19:33:12.785Z,100427.22
2022-10-24T19:35:44.989Z,100424.56
2022-10-24T19:38:11.694Z,100421.13
2022-10-24T19:40:53.541Z,100419.38
2022-10-24T19:43:21.632Z,100427.53
2022-10-24T19:46:07.103Z,100425.81
2022-10-24T19:48:41.353Z,100435.72
2022-10-24T19:51:12.496Z,100427.75
2022-10-24T19:53:41.123Z,100424.28
2022-10-24T19:56:19.001Z,100430.59
2022-10-24T19:58:48.059Z,100432.47
2022-10-24T20:01:17.627Z,100431.69
2022-10-24T20:03:45.562Z,100437.03
2022-10-24T20:06:12.513Z,100440.69
2022-10-24T20:08:39.257Z,100437.13
2022-10-24T20:11:06.649Z,100446.97
2022-10-24T20:13:33.340Z,100454.19
2022-10-24T20:16:03.666Z,100453.31
2022-10-24T20:18:32.486Z,100449.78
2022-10-24T20:20:59.564Z,100448.06
2022-10-24T20:23:26.372Z,100452.53
2022-10-24T20:26:02.164Z,100448.09
2022-10-24T20:28:29.243Z,100465.06
2022-10-24T20:30:55.954Z,100465.06
2022-10-24T20:33:22.670Z,100473.06
2022-10-24T20:35:49.355Z,100468.63
2022-10-24T20:38:16.036Z,100464.19
2022-10-24T20:40:42.747Z,100468.66
2022-10-24T20:43:09.467Z,100474.03
2022-10-24T20:45:40.115Z,100467.81
2022-10-24T20:48:06.927Z,100466.94
2022-10-24T20:50:33.861Z,100475.91
2022-10-24T20:53:00.686Z,100483.09
2022-10-24T20:55:39.431Z,100483.09
2022-10-24T20:58:12.553Z,100484.94
2022-10-24T21:03:06.006Z,100491.25
2022-10-24T21:05:34.875Z,100483.31
2022-10-24T21:08:01.563Z,100485.13
2022-10-24T21:10:28.253Z,100482.47
2022-10-24T21:12:55.266Z,100486.88
2022-10-24T21:15:22.074Z,100478.03
2022-10-24T21:17:49.113Z,100482.47
2022-10-24T21:20:15.947Z,100486.03
2022-10-24T21:22:42.673Z,100493.16
2022-10-24T21:25:09.645Z,100487.00
2022-10-24T21:27:38.248Z,100488.72
2022-10-24T21:30:05.431Z,100491.41
2022-10-24T21:32:33.273Z,100501.19
2022-10-24T21:35:00.019Z,100511.03
2022-10-24T21:37:26.758Z,100505.66
2022-10-24T21:39:53.457Z,100514.56
2022-10-24T21:42:20.226Z,100512.78
2022-10-24T21:44:46.951Z,100504.72
2022-10-24T21:47:13.690Z,100506.44
2022-10-24T21:49:40.428Z,100511.75
2022-10-24T21:52:07.120Z,100509.09
2022-10-24T21:54:33.862Z,100517.06
2022-10-24T21:57:00.557Z,100524.19
2022-10-24T21:59:27.273Z,100523.25
2022-10-24T22:01:54.112Z,100523.25
2022-10-24T22:04:21.070Z,100525.91
2022-10-24T22:06:48.138Z,100515.22
2022-10-24T22:09:18.285Z,100513.47
2022-10-24T22:11:45.215Z,100521.56
2022-10-24T22:14:13.959Z,100523.34
2022-10-24T22:16:41.425Z,100526.03
2022-10-24T22:19:08.436Z,100525.13
2022-10-24T22:21:38.081Z,100536.84
2022-10-24T22:26:39.313Z,100527.03
2022-10-24T22:29:07.022Z,100538.66
2022-10-24T22:31:34.137Z,100537.84
2022-10-24T22:34:01.059Z,100534.34
2022-10-24T22:36:56.814Z,100537.94
2022-10-24T22:39:25.162Z,100546.06
2022-10-24T22:41:52.532Z,100543.41
2022-10-24T22:44:20.646Z,100547.88
2022-10-24T22:47:26.374Z,100552.44
2022-10-24T22:50:12.926Z,100556.06
2022-10-24T22:52:39.834Z,100555.25
2022-10-24T22:55:34.809Z,100552.63
2022-10-24T22:58:01.824Z,100546.41
2022-10-24T23:00:28.806Z,100555.34
2022-10-24T23:03:06.792Z,100556.22
2022-10-24T23:05:38.514Z,100550.88
2022-10-24T23:08:08.197Z,100564.28
2022-10-24T23:10:36.370Z,100557.16
2022-10-24T23:13:03.318Z,100559.03
2022-10-24T23:15:30.229Z,100564.28
2022-10-24T23:17:57.050Z,100562.34
2022-10-24T23:20:40.059Z,100574.75
2022-10-24T23:23:16.993Z,100567.59
2022-10-24T23:25:57.866Z,100567.56
2022-10-24T23:28:31.198Z,100576.41
2022-10-24T23:30:58.087Z,100583.53
2022-10-24T23:33:29.410Z,100576.34
2022-10-24T23:35:59.885Z,100578.94
2022-10-24T23:38:27.264Z,100580.75
2022-10-24T23:40:54.282Z,100576.34
2022-10-24T23:43:21.606Z,100581.69
2022-10-24T23:45:53.476Z,100578.19
2022-10-24T23:48:20.190Z,100577.25
2022-10-24T23:50:54.078Z,100573.69
2022-10-24T23:53:32.948Z,100581.75
2022-10-24T23:58:31.485Z,100579.94
